Time;durP1;ratioP1;P1;durP2;ratioP2;P2;SDS_P1;SDS_P2;PMS_P1;PMS_P2;Temp;Humidity;BMP_temperature;BMP_pressure;BME280_temperature;BME280_humidity;BME280_pressure;Samples;Min_cycle;Max_cycle;Signal;HPM_P1;HPM_P2
2022/06/16 00:02:04;;;;;;;0.10;0.10;;;14.10;99.90;;;;;;5039598;28;20806;-79
2022/06/16 00:04:30;;;;;;;0.10;0.10;;;14.10;99.90;;;;;;5045933;28;20193;-79
2022/06/16 00:06:56;;;;;;;0.10;0.10;;;14.10;99.90;;;;;;5044784;28;20626;-79
2022/06/16 00:09:23;;;;;;;0.10;0.10;;;14.10;99.90;;;;;;5038520;28;20180;-79
2022/06/16 00:11:49;;;;;;;0.10;0.10;;;14.10;99.90;;;;;;5042540;28;21439;-79
2022/06/16 00:14:14;;;;;;;0.17;0.17;;;14.10;99.90;;;;;;5033557;28;20537;-79
2022/06/16 00:16:40;;;;;;;0.10;0.10;;;14.10;99.90;;;;;;5032340;28;21087;-79
2022/06/16 00:19:05;;;;;;;0.10;0.10;;;14.10;99.90;;;;;;5048402;28;20268;-79
2022/06/16 00:21:31;;;;;;;0.10;0.10;;;14.10;99.90;;;;;;5050665;28;20215;-79
2022/06/16 00:23:56;;;;;;;0.10;0.10;;;14.00;99.90;;;;;;5050104;28;20267;-79
2022/06/16 00:26:24;;;;;;;0.10;0.10;;;14.00;99.90;;;;;;5040832;28;20206;-79
2022/06/16 00:28:50;;;;;;;0.10;0.10;;;14.00;99.90;;;;;;5047787;28;20193;-79
2022/06/16 00:31:18;;;;;;;0.10;0.10;;;14.00;99.90;;;;;;5042548;28;20445;-79
2022/06/16 00:33:44;;;;;;;0.10;0.10;;;13.90;99.90;;;;;;5077355;28;20588;-79
2022/06/16 00:36:10;;;;;;;0.10;0.10;;;13.90;99.90;;;;;;5038387;28;20437;-79
2022/06/16 00:38:36;;;;;;;0.10;0.10;;;13.80;99.90;;;;;;5029613;28;20182;-79
2022/06/16 00:41:01;;;;;;;0.10;0.10;;;13.90;99.90;;;;;;5032106;28;20494;-79
2022/06/16 00:43:27;;;;;;;0.10;0.10;;;13.90;99.90;;;;;;5041395;28;20203;-79
2022/06/16 00:45:59;;;;;;;0.10;0.10;;;14.00;99.90;;;;;;5028513;28;22204;-79
2022/06/16 00:48:41;;;;;;;0.10;0.10;;;14.00;99.90;;;;;;5041762;28;20445;-79
2022/06/16 00:51:37;;;;;;;0.10;0.10;;;14.00;99.90;;;;;;5033411;28;20483;-79
2022/06/16 00:54:28;;;;;;;0.10;0.10;;;14.00;99.90;;;;;;5045856;28;21160;-79
2022/06/16 00:56:58;;;;;;;0.10;0.10;;;14.00;99.90;;;;;;5037867;28;20932;-78
2022/06/16 00:59:24;;;;;;;0.10;0.10;;;14.00;99.90;;;;;;5080953;28;20484;-79
2022/06/16 01:01:51;;;;;;;0.10;0.10;;;14.00;99.90;;;;;;5038532;28;20457;-79
2022/06/16 01:07:05;;;;;;;0.10;0.10;;;13.90;99.90;;;;;;5044247;28;20440;-79
2022/06/16 01:09:33;;;;;;;0.10;0.10;;;13.90;99.90;;;;;;5046629;28;20937;-79
2022/06/16 01:15:46;;;;;;;0.10;0.10;;;13.80;99.90;;;;;;5052434;28;20960;-79
2022/06/16 01:18:18;;;;;;;0.10;0.10;;;13.80;99.90;;;;;;5035465;28;20437;-79
2022/06/16 01:21:04;;;;;;;0.10;0.10;;;13.80;99.90;;;;;;5036869;28;20469;-79
2022/06/16 01:23:55;;;;;;;0.10;0.10;;;13.80;99.90;;;;;;5044041;28;20939;-79
2022/06/16 01:26:50;;;;;;;0.10;0.10;;;13.80;99.90;;;;;;5049354;28;20440;-79
2022/06/16 01:29:39;;;;;;;0.10;0.10;;;13.70;99.90;;;;;;5026680;28;20454;-79
2022/06/16 01:32:34;;;;;;;0.10;0.10;;;13.70;99.90;;;;;;5046221;28;22600;-79
2022/06/16 01:35:12;;;;;;;0.10;0.10;;;13.70;99.90;;;;;;5035645;28;20501;-79
2022/06/16 01:38:06;;;;;;;0.10;0.10;;;13.70;99.90;;;;;;5042034;28;20940;-79
2022/06/16 01:40:45;;;;;;;0.10;0.10;;;13.60;99.90;;;;;;5047718;28;20484;-79
2022/06/16 01:43:23;;;;;;;0.10;0.10;;;13.70;99.90;;;;;;5030369;28;20469;-79
2022/06/16 01:46:09;;;;;;;0.10;0.10;;;13.70;99.90;;;;;;5030871;28;20485;-79
2022/06/16 01:48:36;;;;;;;0.10;0.10;;;13.60;99.90;;;;;;5035885;28;21123;-79
2022/06/16 01:51:26;;;;;;;0.20;0.20;;;13.60;99.90;;;;;;5039808;28;20457;-79
2022/06/16 01:54:15;;;;;;;0.10;0.10;;;13.70;99.90;;;;;;5046617;28;20449;-79
2022/06/16 01:56:44;;;;;;;0.10;0.10;;;13.70;99.90;;;;;;5041029;28;20483;-78
2022/06/16 01:59:17;;;;;;;0.10;0.10;;;13.70;99.90;;;;;;5044107;28;20953;-78
2022/06/16 02:01:46;;;;;;;0.10;0.10;;;13.70;99.90;;;;;;5034795;28;21024;-79
2022/06/16 02:04:36;;;;;;;0.10;0.10;;;13.60;99.90;;;;;;5048930;28;20454;-79
2022/06/16 02:07:08;;;;;;;0.10;0.10;;;13.70;99.90;;;;;;5047483;28;20535;-79
2022/06/16 02:09:42;;;;;;;0.10;0.10;;;13.70;99.90;;;;;;5038658;28;20437;-79
2022/06/16 02:12:55;;;;;;;0.10;0.10;;;13.80;99.90;;;;;;5036744;28;20454;-79
2022/06/16 02:15:02;;;;;;;0.13;0.13;;;13.70;99.90;;;;;;5026709;28;20446;-79
2022/06/16 02:17:28;;;;;;;0.10;0.10;;;13.70;99.90;;;;;;5036158;28;20444;-79
2022/06/16 02:19:54;;;;;;;0.10;0.10;;;13.60;99.90;;;;;;5045958;28;20514;-79
2022/06/16 02:22:20;;;;;;;0.10;0.10;;;13.60;99.90;;;;;;5038180;28;20465;-79
2022/06/16 02:24:45;;;;;;;0.10;0.10;;;13.50;99.90;;;;;;5047701;28;20198;-78
2022/06/16 02:27:11;;;;;;;0.10;0.10;;;13.50;99.90;;;;;;5034426;28;20648;-79
2022/06/16 02:29:38;;;;;;;0.10;0.10;;;13.40;99.90;;;;;;5032615;28;20199;-79
2022/06/16 02:32:29;;;;;;;0.10;0.10;;;13.30;99.90;;;;;;5045126;28;20186;-79
2022/06/16 02:35:02;;;;;;;0.10;0.10;;;13.20;99.90;;;;;;5037789;28;20871;-79
2022/06/16 02:37:39;;;;;;;0.10;0.10;;;13.20;99.90;;;;;;5043359;28;20451;-79
2022/06/16 02:40:23;;;;;;;0.10;0.10;;;13.10;99.90;;;;;;5033476;28;20473;-79
2022/06/16 02:43:05;;;;;;;0.10;0.10;;;13.00;99.90;;;;;;5037145;28;20460;-79
2022/06/16 02:45:54;;;;;;;0.10;0.10;;;13.00;99.90;;;;;;5032327;28;20438;-79
2022/06/16 02:48:41;;;;;;;0.10;0.10;;;12.90;99.90;;;;;;5030573;28;20536;-79
2022/06/16 02:51:18;;;;;;;0.10;0.10;;;12.90;99.90;;;;;;5041667;28;20996;-80
2022/06/16 02:56:48;;;;;;;0.10;0.10;;;12.90;99.90;;;;;;5039369;28;20442;-79
2022/06/16 02:59:19;;;;;;;0.10;0.10;;;12.90;99.90;;;;;;5031508;28;20873;-79
2022/06/16 03:01:45;;;;;;;0.10;0.10;;;13.00;99.90;;;;;;5032131;28;21003;-79
2022/06/16 03:04:14;;;;;;;0.10;0.10;;;13.10;99.90;;;;;;5035341;28;20778;-80
2022/06/16 03:06:40;;;;;;;0.10;0.10;;;13.10;99.90;;;;;;5035268;28;20556;-79
2022/06/16 03:09:06;;;;;;;0.10;0.10;;;13.10;99.90;;;;;;5045624;28;20974;-80
2022/06/16 03:11:34;;;;;;;0.10;0.10;;;13.10;99.90;;;;;;5041527;28;20240;-79
2022/06/16 03:14:00;;;;;;;0.10;0.10;;;13.10;99.90;;;;;;5042412;28;20825;-80
2022/06/16 03:16:26;;;;;;;0.10;0.10;;;13.10;99.90;;;;;;5037520;28;20450;-79
2022/06/16 03:18:52;;;;;;;0.10;0.10;;;13.10;99.90;;;;;;5042931;28;20444;-80
2022/06/16 03:21:18;;;;;;;0.10;0.10;;;13.10;99.90;;;;;;5038448;28;20469;-79
2022/06/16 03:23:43;;;;;;;0.10;0.10;;;13.10;99.90;;;;;;5034649;28;20187;-79
2022/06/16 03:26:09;;;;;;;0.10;0.10;;;13.00;99.90;;;;;;5048958;28;20688;-80
2022/06/16 03:28:35;;;;;;;0.10;0.10;;;13.00;99.90;;;;;;5032289;28;20191;-79
2022/06/16 03:31:00;;;;;;;0.10;0.10;;;13.00;99.90;;;;;;5032235;28;20276;-79
2022/06/16 03:33:26;;;;;;;0.10;0.10;;;13.10;99.90;;;;;;5045344;28;20586;-79
2022/06/16 03:35:52;;;;;;;0.10;0.10;;;13.10;99.90;;;;;;5045657;28;20194;-80
2022/06/16 03:41:03;;;;;;;0.10;0.10;;;13.10;99.90;;;;;;5046235;28;20221;-79
2022/06/16 03:43:28;;;;;;;0.10;0.10;;;13.10;99.90;;;;;;5048318;28;20449;-79
2022/06/16 03:45:54;;;;;;;0.10;0.10;;;13.10;99.90;;;;;;5041865;28;20198;-79
2022/06/16 03:48:19;;;;;;;0.10;0.10;;;13.10;99.90;;;;;;5038323;28;20191;-79
2022/06/16 03:50:45;;;;;;;0.10;0.10;;;13.10;99.90;;;;;;5047079;28;20187;-79
2022/06/16 03:53:10;;;;;;;0.10;0.10;;;13.10;99.90;;;;;;5040295;28;20558;-79
2022/06/16 03:55:36;;;;;;;0.10;0.10;;;13.20;99.90;;;;;;5055327;28;20187;-79
2022/06/16 03:58:01;;;;;;;0.10;0.10;;;13.20;99.90;;;;;;5033585;28;20187;-79
2022/06/16 04:00:29;;;;;;;0.10;0.10;;;13.20;99.90;;;;;;5031619;28;20590;-79
2022/06/16 04:05:40;;;;;;;0.10;0.10;;;13.20;99.90;;;;;;5040261;28;20448;-79
2022/06/16 04:08:07;;;;;;;0.10;0.10;;;13.30;99.90;;;;;;5038426;28;20637;-79
2022/06/16 04:10:32;;;;;;;0.10;0.10;;;13.20;99.90;;;;;;5042545;28;21184;-79
2022/06/16 04:12:58;;;;;;;0.10;0.10;;;13.20;99.90;;;;;;5044232;28;20523;-79
2022/06/16 04:15:24;;;;;;;0.10;0.10;;;13.20;99.90;;;;;;5047148;28;20195;-79
2022/06/16 04:17:49;;;;;;;0.10;0.10;;;13.30;99.90;;;;;;5032093;28;20188;-79
2022/06/16 04:20:15;;;;;;;0.10;0.10;;;13.30;99.90;;;;;;5040387;28;20218;-79
2022/06/16 04:22:42;;;;;;;0.10;0.10;;;13.40;99.90;;;;;;5041737;28;20209;-79
2022/06/16 04:25:14;;;;;;;0.10;0.10;;;13.40;99.90;;;;;;5034711;28;20589;-79
2022/06/16 04:27:41;;;;;;;0.10;0.10;;;13.40;99.90;;;;;;5049637;28;20810;-79
2022/06/16 04:30:08;;;;;;;0.10;0.10;;;13.50;99.90;;;;;;5052990;28;20878;-79
2022/06/16 04:32:33;;;;;;;0.10;0.10;;;13.50;99.90;;;;;;5056101;28;20441;-79
2022/06/16 04:34:59;;;;;;;0.10;0.10;;;13.50;99.90;;;;;;5041189;28;20803;-79
2022/06/16 04:37:24;;;;;;;0.10;0.10;;;13.50;99.90;;;;;;5037621;28;20198;-79
2022/06/16 04:39:50;;;;;;;0.10;0.10;;;13.50;99.90;;;;;;5037624;28;20187;-79
2022/06/16 04:42:15;;;;;;;0.10;0.10;;;13.60;99.90;;;;;;5033279;28;20191;-79
2022/06/16 04:44:41;;;;;;;0.10;0.10;;;13.70;99.90;;;;;;5031874;28;20211;-79
2022/06/16 04:47:07;;;;;;;0.10;0.10;;;13.70;99.90;;;;;;5039497;28;20674;-79
2022/06/16 04:49:35;;;;;;;0.10;0.10;;;13.80;99.90;;;;;;5048126;28;20464;-79
2022/06/16 04:52:01;;;;;;;0.10;0.10;;;13.80;99.90;;;;;;5046897;28;20449;-78
2022/06/16 04:54:26;;;;;;;0.10;0.10;;;13.80;99.90;;;;;;5044096;28;20440;-79
2022/06/16 04:56:52;;;;;;;0.10;0.10;;;13.80;99.90;;;;;;5043927;28;20639;-79
2022/06/16 04:59:18;;;;;;;0.10;0.10;;;13.80;99.90;;;;;;5037860;28;20226;-79
2022/06/16 05:01:43;;;;;;;0.10;0.10;;;13.90;99.90;;;;;;5031062;28;20922;-79
2022/06/16 05:04:10;;;;;;;0.10;0.10;;;13.90;99.90;;;;;;5036903;28;20187;-79
2022/06/16 05:06:36;;;;;;;0.10;0.10;;;14.00;99.90;;;;;;5041336;28;20258;-78
2022/06/16 05:09:02;;;;;;;0.10;0.10;;;14.10;99.90;;;;;;5036716;28;20528;-79
2022/06/16 05:11:27;;;;;;;0.10;0.10;;;14.10;99.90;;;;;;5038564;28;20184;-79
2022/06/16 05:13:53;;;;;;;0.10;0.10;;;14.10;99.90;;;;;;5042397;28;20479;-80
2022/06/16 05:16:18;;;;;;;0.10;0.10;;;14.20;99.90;;;;;;5040555;28;20244;-79
2022/06/16 05:18:44;;;;;;;0.10;0.10;;;14.30;99.90;;;;;;5045886;28;20232;-79
2022/06/16 05:21:13;;;;;;;0.10;0.10;;;14.30;99.90;;;;;;5048893;28;20267;-79
2022/06/16 05:23:39;;;;;;;0.10;0.10;;;14.20;99.90;;;;;;5047416;28;20233;-79
2022/06/16 05:26:06;;;;;;;0.10;0.10;;;14.10;99.90;;;;;;5053847;28;20444;-79
2022/06/16 05:28:33;;;;;;;0.10;0.10;;;13.90;99.90;;;;;;5057869;28;20943;-79
2022/06/16 05:30:58;;;;;;;0.10;0.10;;;13.90;99.90;;;;;;5047157;28;20453;-79
2022/06/16 05:33:24;;;;;;;0.10;0.10;;;14.00;99.90;;;;;;5058702;28;20456;-80
2022/06/16 05:36:02;;;;;;;0.10;0.10;;;14.10;99.90;;;;;;5047878;28;20183;-79
2022/06/16 05:38:28;;;;;;;0.10;0.10;;;14.20;99.90;;;;;;5037612;28;20191;-79
2022/06/16 05:41:10;;;;;;;0.10;0.10;;;14.10;99.90;;;;;;5040086;28;20492;-79
2022/06/16 05:43:36;;;;;;;0.10;0.10;;;14.30;99.90;;;;;;5032032;28;20442;-80
2022/06/16 05:46:02;;;;;;;0.10;0.10;;;14.30;99.90;;;;;;5048709;28;20527;-79
2022/06/16 05:48:28;;;;;;;0.10;0.10;;;14.40;99.90;;;;;;5047862;28;20639;-79
2022/06/16 05:50:54;;;;;;;0.10;0.10;;;14.40;99.90;;;;;;5047415;28;20452;-79
2022/06/16 05:53:20;;;;;;;0.10;0.10;;;14.50;99.90;;;;;;5052308;28;20205;-79
2022/06/16 05:55:46;;;;;;;0.10;0.10;;;14.50;99.90;;;;;;5054618;28;20940;-79
2022/06/16 05:58:12;;;;;;;0.10;0.10;;;14.60;99.90;;;;;;5046775;28;20189;-80
2022/06/16 06:00:38;;;;;;;0.10;0.10;;;14.70;99.90;;;;;;5047875;28;21007;-80
2022/06/16 06:03:03;;;;;;;0.10;0.10;;;14.70;99.90;;;;;;5046946;28;20191;-79
2022/06/16 06:05:29;;;;;;;0.10;0.10;;;14.90;99.90;;;;;;5052490;28;20437;-79
2022/06/16 06:16:26;;;;;;;0.10;0.10;;;15.30;99.90;;;;;;5043049;28;20452;-79
2022/06/16 06:19:23;;;;;;;0.10;0.10;;;15.30;99.90;;;;;;5042093;28;20480;-80
2022/06/16 06:24:39;;;;;;;0.10;0.10;;;15.50;99.90;;;;;;5031950;28;20529;-83
2022/06/16 06:27:35;;;;;;;0.10;0.10;;;15.80;99.90;;;;;;5041863;28;20456;-83
2022/06/16 06:30:04;;;;;;;0.10;0.10;;;15.90;99.90;;;;;;5043278;28;20442;-83
2022/06/16 06:32:30;;;;;;;0.10;0.10;;;16.10;99.90;;;;;;5042416;28;20441;-84
2022/06/16 06:34:56;;;;;;;0.10;0.10;;;16.20;99.90;;;;;;5042347;28;20453;-85
2022/06/16 06:37:24;;;;;;;0.10;0.10;;;16.30;99.90;;;;;;5050351;28;20799;-83
2022/06/16 06:39:51;;;;;;;0.10;0.10;;;16.40;99.90;;;;;;5061167;28;20625;-83
2022/06/16 06:42:16;;;;;;;0.10;0.10;;;16.50;99.90;;;;;;5052948;28;20489;-86
2022/06/16 06:44:42;;;;;;;0.10;0.10;;;16.40;99.90;;;;;;5056265;28;20437;-83
2022/06/16 06:47:14;;;;;;;0.10;0.10;;;16.30;99.90;;;;;;5047640;28;20528;-83
2022/06/16 06:49:40;;;;;;;0.10;0.10;;;16.30;99.90;;;;;;5052133;28;20472;-83
2022/06/16 06:52:06;;;;;;;0.10;0.10;;;16.40;99.90;;;;;;5047039;28;20527;-83
2022/06/16 06:54:31;;;;;;;0.10;0.10;;;16.50;99.90;;;;;;5048846;28;20268;-83
2022/06/16 06:56:57;;;;;;;0.10;0.10;;;16.60;99.90;;;;;;5050480;28;20244;-81
2022/06/16 06:59:23;;;;;;;0.10;0.10;;;16.60;99.90;;;;;;5048164;28;20787;-83
2022/06/16 07:01:50;;;;;;;0.10;0.10;;;16.50;99.90;;;;;;5041440;28;20303;-83
2022/06/16 07:04:17;;;;;;;0.10;0.10;;;16.70;99.90;;;;;;5057350;28;20462;-84
2022/06/16 07:06:44;;;;;;;0.10;0.10;;;16.70;99.90;;;;;;5046371;28;22291;-84
2022/06/16 07:09:11;;;;;;;0.10;0.10;;;16.70;99.90;;;;;;5049836;28;20809;-83
2022/06/16 07:11:40;;;;;;;0.10;0.10;;;16.70;99.90;;;;;;5051832;28;20493;-83
2022/06/16 07:14:05;;;;;;;0.10;0.10;;;16.80;99.90;;;;;;5057607;28;20451;-84
2022/06/16 07:16:32;;;;;;;0.10;0.10;;;17.20;99.90;;;;;;5043276;28;20443;-84
2022/06/16 07:18:57;;;;;;;0.10;0.10;;;17.60;99.90;;;;;;5061825;28;20187;-83
2022/06/16 07:21:24;;;;;;;0.10;0.07;;;18.00;99.90;;;;;;5053636;28;20487;-84
2022/06/16 07:23:51;;;;;;;0.10;0.00;;;18.20;99.90;;;;;;5069237;28;20458;-83
2022/06/16 07:26:17;;;;;;;0.10;0.10;;;18.30;99.90;;;;;;5069252;28;20452;-83
2022/06/16 07:28:43;;;;;;;0.10;0.10;;;18.50;99.90;;;;;;5051637;28;20440;-83
2022/06/16 07:31:08;;;;;;;0.10;0.00;;;18.70;99.90;;;;;;5050495;28;20812;-83
2022/06/16 07:33:34;;;;;;;0.10;0.00;;;18.70;99.90;;;;;;5062245;28;20186;-84
2022/06/16 07:36:00;;;;;;;0.10;0.00;;;18.80;99.90;;;;;;5045498;28;20641;-83
2022/06/16 07:38:26;;;;;;;0.10;0.00;;;18.80;99.90;;;;;;5048222;28;20197;-83
2022/06/16 07:41:30;;;;;;;0.10;0.00;;;18.80;99.90;;;;;;5070183;28;20344;-84
2022/06/16 07:43:37;;;;;;;0.10;0.00;;;18.50;99.90;;;;;;5069967;28;20448;-83
2022/06/16 07:46:02;;;;;;;0.07;0.00;;;18.70;99.90;;;;;;5067166;28;20953;-83
2022/06/16 07:48:28;;;;;;;0.10;0.00;;;18.60;99.90;;;;;;5032858;28;20274;-83
2022/06/16 07:50:53;;;;;;;0.07;0.00;;;18.60;99.90;;;;;;5047798;28;20223;-83
2022/06/16 07:53:19;;;;;;;0.10;0.00;;;18.70;99.90;;;;;;5053629;28;20198;-83
2022/06/16 07:55:44;;;;;;;0.10;0.00;;;18.70;99.90;;;;;;5063796;28;20190;-83
2022/06/16 07:58:10;;;;;;;0.10;0.00;;;18.20;99.90;;;;;;5051882;28;20228;-84
2022/06/16 08:00:36;;;;;;;0.10;0.00;;;17.80;99.90;;;;;;5052183;28;20223;-84
2022/06/16 08:03:02;;;;;;;0.10;0.00;;;18.20;99.90;;;;;;5052281;28;20610;-83
2022/06/16 08:05:28;;;;;;;0.10;0.10;;;18.30;99.90;;;;;;5046387;28;20194;-84
2022/06/16 08:07:53;;;;;;;0.10;0.00;;;18.30;99.90;;;;;;5047595;28;20455;-83
2022/06/16 08:10:22;;;;;;;0.10;0.00;;;18.60;99.90;;;;;;5052039;28;20217;-83
2022/06/16 08:12:47;;;;;;;0.10;0.00;;;18.60;99.90;;;;;;5051113;28;20199;-83
2022/06/16 08:15:13;;;;;;;0.10;0.10;;;18.50;99.90;;;;;;5046386;28;20813;-83
2022/06/16 08:17:41;;;;;;;0.10;0.00;;;18.90;99.90;;;;;;5049936;28;20288;-84
2022/06/16 08:20:08;;;;;;;0.10;0.00;;;19.50;99.90;;;;;;5046299;28;20237;-84
2022/06/16 08:22:34;;;;;;;0.10;0.00;;;19.60;99.90;;;;;;5046003;28;20448;-84
2022/06/16 08:25:00;;;;;;;0.10;0.00;;;20.20;99.90;;;;;;5081320;28;20502;-84
2022/06/16 08:27:32;;;;;;;0.10;0.00;;;20.10;99.90;;;;;;5051590;28;20935;-84
2022/06/16 08:29:58;;;;;;;0.10;0.00;;;20.30;99.90;;;;;;5053234;28;20186;-85
2022/06/16 08:32:24;;;;;;;0.10;0.00;;;20.30;99.90;;;;;;5057821;28;20521;-85
2022/06/16 08:34:50;;;;;;;0.10;0.00;;;20.30;99.90;;;;;;5051579;28;20417;-84
2022/06/16 08:37:16;;;;;;;0.07;0.00;;;20.30;99.90;;;;;;5032158;28;20458;-84
2022/06/16 08:39:42;;;;;;;0.07;0.00;;;20.00;99.90;;;;;;5059945;28;20376;-85
2022/06/16 08:42:44;;;;;;;0.10;0.10;;;19.90;99.90;;;;;;5071405;28;20574;-84
2022/06/16 08:45:19;;;;;;;0.10;0.00;;;19.50;99.90;;;;;;5065775;28;20496;-85
2022/06/16 08:48:17;;;;;;;0.10;0.00;;;20.00;99.90;;;;;;5056076;28;20498;-85
2022/06/16 08:50:53;;;;;;;0.10;0.00;;;20.00;99.90;;;;;;5047149;28;20866;-86
2022/06/16 08:53:45;;;;;;;0.10;0.00;;;20.60;99.90;;;;;;5031284;28;20417;-85
2022/06/16 08:56:30;;;;;;;0.10;0.00;;;20.50;99.90;;;;;;5037749;28;20447;-87
2022/06/16 08:59:21;;;;;;;0.10;0.00;;;21.20;99.90;;;;;;5051199;28;20920;-86
2022/06/16 09:02:19;;;;;;;0.10;0.00;;;21.30;99.90;;;;;;5049747;28;21015;-86
2022/06/16 09:04:51;;;;;;;0.10;0.00;;;21.50;99.90;;;;;;5027769;28;20434;-84
2022/06/16 09:07:51;;;;;;;0.10;0.00;;;21.90;99.90;;;;;;5032713;28;20457;-84
2022/06/16 09:10:16;;;;;;;0.10;0.00;;;21.90;99.90;;;;;;5067320;28;20443;-85
2022/06/16 09:13:09;;;;;;;0.10;0.00;;;21.40;99.90;;;;;;5034268;28;20446;-84
2022/06/16 09:15:56;;;;;;;0.10;0.00;;;21.50;99.90;;;;;;5049142;28;20252;-85
2022/06/16 09:18:47;;;;;;;0.10;0.00;;;21.60;99.90;;;;;;5048069;28;20959;-85
2022/06/16 09:21:31;;;;;;;0.10;0.00;;;21.70;99.90;;;;;;5045443;28;20489;-84
2022/06/16 09:24:18;;;;;;;0.10;0.00;;;22.10;99.90;;;;;;5062170;28;20810;-86
2022/06/16 09:27:04;;;;;;;0.10;0.00;;;21.90;99.90;;;;;;5069033;28;20428;-84
2022/06/16 09:29:42;;;;;;;0.10;0.00;;;21.70;99.90;;;;;;5060673;28;20813;-85
2022/06/16 09:32:22;;;;;;;0.10;0.00;;;22.00;99.90;;;;;;5050648;28;20487;-86
2022/06/16 09:34:51;;;;;;;0.10;0.10;;;22.30;99.90;;;;;;5048441;28;20470;-86
2022/06/16 09:37:38;;;;;;;0.10;0.00;;;22.50;99.90;;;;;;5046720;28;20507;-85
2022/06/16 09:40:13;;;;;;;0.10;0.00;;;23.00;99.90;;;;;;5046499;28;20451;-88
2022/06/16 09:42:56;;;;;;;0.10;0.00;;;23.40;99.90;;;;;;5053481;28;20465;-91
2022/06/16 09:45:27;;;;;;;0.10;0.00;;;23.30;99.90;;;;;;5048581;28;20452;-90
2022/06/16 09:48:02;;;;;;;0.10;0.00;;;23.30;99.90;;;;;;5052623;28;20457;-90
2022/06/16 09:50:53;;;;;;;0.10;0.00;;;23.40;99.90;;;;;;5077929;28;20473;-91
2022/06/16 09:53:40;;;;;;;0.10;0.00;;;23.40;99.90;;;;;;5052476;28;20511;-90
2022/06/16 09:56:23;;;;;;;0.10;0.00;;;23.10;99.90;;;;;;5048109;28;20520;-91
2022/06/16 09:58:59;;;;;;;0.10;0.00;;;23.60;99.90;;;;;;5057595;28;20814;-92
2022/06/16 10:01:30;;;;;;;0.10;0.00;;;23.40;99.90;;;;;;5055143;28;20476;-93
2022/06/16 10:04:05;;;;;;;0.10;0.00;;;23.90;99.90;;;;;;5051309;28;20437;-92
2022/06/16 10:07:02;;;;;;;0.10;0.00;;;23.20;99.90;;;;;;5044112;28;20456;-95
2022/06/16 10:09:47;;;;;;;0.10;0.00;;;23.20;99.90;;;;;;5060160;28;20967;-94
2022/06/16 10:12:20;;;;;;;0.10;0.00;;;23.80;99.90;;;;;;5046683;28;20465;-92
2022/06/16 10:15:09;;;;;;;0.10;0.00;;;24.20;99.90;;;;;;5033367;28;20446;-88
2022/06/16 10:17:35;;;;;;;0.10;0.00;;;24.40;99.90;;;;;;5045170;28;20899;-90
2022/06/16 10:20:03;;;;;;;0.10;0.00;;;23.90;99.90;;;;;;5052077;28;20445;-89
2022/06/16 10:22:31;;;;;;;0.07;0.00;;;24.10;99.90;;;;;;5048246;28;20958;-92
2022/06/16 10:25:07;;;;;;;0.10;0.00;;;24.00;99.90;;;;;;5055167;28;20531;-92
2022/06/16 10:27:55;;;;;;;0.10;0.00;;;24.90;99.90;;;;;;5058736;28;20501;-88
2022/06/16 10:30:25;;;;;;;0.10;0.00;;;24.80;99.90;;;;;;5059720;28;20981;-87
2022/06/16 10:33:16;;;;;;;0.10;0.00;;;25.10;99.90;;;;;;5035887;28;20489;-87
2022/06/16 10:35:50;;;;;;;0.10;0.00;;;24.60;99.90;;;;;;5044715;28;20449;-89
2022/06/16 10:38:32;;;;;;;0.07;0.00;;;23.50;99.90;;;;;;5053734;28;20424;-91
2022/06/16 10:40:59;;;;;;;0.10;0.00;;;24.40;99.90;;;;;;5044195;28;20485;-96
2022/06/16 10:43:26;;;;;;;0.10;0.00;;;26.00;99.90;;;;;;5056806;28;20450;-94
2022/06/16 10:45:59;;;;;;;0.10;0.00;;;26.10;99.90;;;;;;5083880;28;20425;-92
2022/06/16 10:48:35;;;;;;;0.10;0.00;;;25.20;99.90;;;;;;5066660;28;20466;-91
2022/06/16 10:51:25;;;;;;;0.10;0.00;;;24.40;99.90;;;;;;5050339;28;20436;-89
2022/06/16 10:54:11;;;;;;;0.10;0.00;;;24.10;99.90;;;;;;5049447;28;20523;-91
2022/06/16 10:56:39;;;;;;;0.10;0.00;;;24.70;99.90;;;;;;5052374;28;20532;-89
2022/06/16 10:59:23;;;;;;;0.10;0.00;;;23.80;99.90;;;;;;5062920;28;20455;-88
2022/06/16 11:01:55;;;;;;;0.10;0.00;;;23.60;99.90;;;;;;5063164;28;20480;-90
2022/06/16 11:04:24;;;;;;;0.10;0.00;;;24.40;99.90;;;;;;5054522;28;20445;-87
2022/06/16 11:06:53;;;;;;;0.10;0.00;;;24.90;99.90;;;;;;5056886;28;20448;-89
2022/06/16 11:09:22;;;;;;;0.10;0.00;;;24.70;99.90;;;;;;5055807;28;20448;-88
2022/06/16 11:11:56;;;;;;;0.10;0.00;;;25.40;99.90;;;;;;5061440;28;20451;-88
2022/06/16 11:14:43;;;;;;;0.10;0.00;;;25.10;99.90;;;;;;5054945;28;21061;-87
2022/06/16 11:17:25;;;;;;;0.10;0.00;;;23.80;99.90;;;;;;5058474;28;20443;-88
2022/06/16 11:20:12;;;;;;;0.10;0.00;;;24.20;99.90;;;;;;5050881;28;20883;-88
2022/06/16 11:22:42;;;;;;;0.10;0.00;;;24.10;99.90;;;;;;5043349;28;20434;-94
2022/06/16 11:25:17;;;;;;;0.10;0.00;;;23.90;99.90;;;;;;5048507;28;20502;-86
2022/06/16 11:27:54;;;;;;;0.10;0.00;;;24.30;99.90;;;;;;5062079;28;20440;-90
2022/06/16 11:30:47;;;;;;;0.10;0.00;;;25.10;99.90;;;;;;5051281;28;20444;-88
2022/06/16 11:36:34;;;;;;;0.10;0.00;;;27.20;99.90;;;;;;5063295;28;20451;-92
2022/06/16 11:39:22;;;;;;;0.10;0.00;;;27.80;99.90;;;;;;5034431;28;20522;-93
2022/06/16 11:41:51;;;;;;;0.10;0.00;;;26.10;99.90;;;;;;5036746;28;20569;-91
2022/06/16 11:44:29;;;;;;;0.10;0.00;;;25.70;99.90;;;;;;5046817;28;20432;-89
2022/06/16 11:47:14;;;;;;;0.10;0.00;;;26.00;99.90;;;;;;5051241;28;20462;-89
2022/06/16 11:49:57;;;;;;;0.10;0.00;;;27.00;99.90;;;;;;5053746;28;20487;-88
2022/06/16 11:52:34;;;;;;;0.10;0.00;;;26.90;99.90;;;;;;5063634;28;20506;-93
2022/06/16 11:55:22;;;;;;;0.10;0.00;;;27.80;99.90;;;;;;5048336;28;20696;-91
2022/06/16 11:58:06;;;;;;;0.10;0.00;;;26.20;99.90;;;;;;5052461;28;20445;-91
2022/06/16 12:00:56;;;;;;;0.10;0.00;;;25.20;99.90;;;;;;5046163;28;21058;-92
2022/06/16 12:03:30;;;;;;;0.10;0.00;;;24.40;99.90;;;;;;5046779;28;20452;-89
2022/06/16 12:06:23;;;;;;;0.10;0.00;;;23.80;99.90;;;;;;5037114;28;20510;-88
2022/06/16 12:09:19;;;;;;;0.10;0.00;;;23.60;99.90;;;;;;5065125;28;21959;-88
2022/06/16 12:12:02;;;;;;;0.10;0.00;;;24.30;99.90;;;;;;5048193;28;20437;-88
2022/06/16 12:14:50;;;;;;;0.10;0.00;;;26.10;99.90;;;;;;5064385;28;20448;-87
2022/06/16 12:17:28;;;;;;;0.10;0.00;;;27.80;99.90;;;;;;5059194;28;20450;-86
2022/06/16 12:20:03;;;;;;;0.07;0.00;;;27.80;99.90;;;;;;5051615;28;21061;-87
2022/06/16 12:22:51;;;;;;;0.10;0.00;;;28.30;99.90;;;;;;5047249;28;20555;-85
2022/06/16 12:25:45;;;;;;;0.10;0.00;;;27.10;99.10;;;;;;5050213;28;20856;-85
2022/06/16 12:28:24;;;;;;;0.10;0.00;;;26.60;99.90;;;;;;5052723;28;20437;-88
2022/06/16 12:31:06;;;;;;;0.10;0.00;;;26.60;99.90;;;;;;5047264;28;20448;-88
2022/06/16 12:33:44;;;;;;;0.00;0.00;;;28.40;99.90;;;;;;5054363;28;20476;-88
2022/06/16 12:36:19;;;;;;;0.10;0.00;;;28.30;98.30;;;;;;5051378;28;20440;-88
2022/06/16 12:38:56;;;;;;;0.10;0.00;;;26.90;99.90;;;;;;5048496;28;20444;-88
2022/06/16 12:41:31;;;;;;;0.10;0.00;;;28.10;97.80;;;;;;5057405;28;20487;-87
2022/06/16 12:44:12;;;;;;;0.10;0.00;;;28.90;99.90;;;;;;5049949;28;20421;-87
2022/06/16 12:46:46;;;;;;;0.00;0.00;;;28.40;99.90;;;;;;5046518;28;20472;-87
2022/06/16 12:49:22;;;;;;;0.10;0.00;;;28.80;99.60;;;;;;5051090;28;20991;-87
2022/06/16 12:51:54;;;;;;;0.00;0.00;;;28.90;98.30;;;;;;5046933;28;20803;-89
2022/06/16 12:54:36;;;;;;;0.10;0.00;;;27.50;99.10;;;;;;5048158;28;20952;-87
2022/06/16 12:57:11;;;;;;;0.07;0.00;;;27.90;97.90;;;;;;5061184;28;20417;-86
2022/06/16 12:59:45;;;;;;;0.00;0.00;;;26.50;98.40;;;;;;5045001;28;20616;-87
2022/06/16 13:02:16;;;;;;;0.07;0.00;;;25.70;99.80;;;;;;5040542;28;20484;-87
2022/06/16 13:04:43;;;;;;;0.10;0.00;;;26.00;99.90;;;;;;5048778;28;20507;-87
2022/06/16 13:07:14;;;;;;;0.10;0.00;;;25.10;99.70;;;;;;5046637;28;20448;-87
2022/06/16 13:09:41;;;;;;;0.07;0.00;;;25.70;99.60;;;;;;5059802;28;20855;-88
2022/06/16 13:12:31;;;;;;;0.10;0.00;;;26.90;99.90;;;;;;5071095;28;20420;-87
2022/06/16 13:15:04;;;;;;;0.10;0.00;;;27.90;99.90;;;;;;5056809;28;20445;-88
2022/06/16 13:17:36;;;;;;;0.10;0.00;;;28.10;99.10;;;;;;5049085;28;20437;-87
2022/06/16 13:20:10;;;;;;;0.10;0.00;;;28.50;97.50;;;;;;5049162;28;20484;-86
2022/06/16 13:22:48;;;;;;;0.10;0.00;;;28.10;96.30;;;;;;5037863;28;20453;-88
2022/06/16 13:25:42;;;;;;;0.10;0.00;;;28.00;98.00;;;;;;5050710;28;20971;-88
2022/06/16 13:28:14;;;;;;;0.10;0.00;;;27.50;97.70;;;;;;5047703;28;20490;-88
2022/06/16 13:30:56;;;;;;;0.10;0.00;;;26.80;99.50;;;;;;5037812;28;20529;-87
2022/06/16 13:33:32;;;;;;;0.10;0.00;;;26.10;98.90;;;;;;5030617;28;20446;-88
2022/06/16 13:36:11;;;;;;;0.10;0.00;;;25.90;99.90;;;;;;5029673;28;20926;-89
2022/06/16 13:38:41;;;;;;;0.10;0.00;;;26.60;99.90;;;;;;5049093;28;20475;-90
2022/06/16 13:41:37;;;;;;;0.10;0.00;;;26.60;99.70;;;;;;5048086;28;20820;-87
2022/06/16 13:44:26;;;;;;;0.10;0.00;;;26.20;99.10;;;;;;5049300;28;20430;-87
2022/06/16 13:46:54;;;;;;;0.10;0.00;;;24.90;97.40;;;;;;5051817;28;20452;-87
2022/06/16 13:49:46;;;;;;;0.10;0.10;;;25.40;99.60;;;;;;5050844;28;20429;-88